sensor_id;sensor_type;location;lat;lon;timestamp;P1;durP1;ratioP1;P2;durP2;ratioP2
57107;SDS011;42987;52.916;6.542;2024-03-17T00:00:22;10.88;;;2.42;;
57107;SDS011;42987;52.916;6.542;2024-03-17T00:02:48;8.38;;;2.60;;
57107;SDS011;42987;52.916;6.542;2024-03-17T00:05:14;10.02;;;2.38;;
57107;SDS011;42987;52.916;6.542;2024-03-17T00:07:40;10.65;;;3.00;;
57107;SDS011;42987;52.916;6.542;2024-03-17T00:10:06;7.03;;;2.60;;
57107;SDS011;42987;52.916;6.542;2024-03-17T00:12:33;9.00;;;2.90;;
57107;SDS011;42987;52.916;6.542;2024-03-17T00:14:59;8.82;;;2.63;;
57107;SDS011;42987;52.916;6.542;2024-03-17T00:17:25;6.45;;;2.45;;
57107;SDS011;42987;52.916;6.542;2024-03-17T00:19:50;8.15;;;2.63;;
57107;SDS011;42987;52.916;6.542;2024-03-17T00:22:16;7.93;;;3.13;;
57107;SDS011;42987;52.916;6.542;2024-03-17T00:24:42;8.77;;;3.05;;
57107;SDS011;42987;52.916;6.542;2024-03-17T00:27:08;9.80;;;2.70;;
57107;SDS011;42987;52.916;6.542;2024-03-17T00:29:35;8.25;;;2.40;;
57107;SDS011;42987;52.916;6.542;2024-03-17T00:32:00;7.50;;;2.90;;
57107;SDS011;42987;52.916;6.542;2024-03-17T00:34:26;7.20;;;2.47;;
57107;SDS011;42987;52.916;6.542;2024-03-17T00:36:52;7.97;;;3.03;;
57107;SDS011;42987;52.916;6.542;2024-03-17T00:39:18;9.65;;;3.75;;
57107;SDS011;42987;52.916;6.542;2024-03-17T00:41:44;9.50;;;3.55;;
57107;SDS011;42987;52.916;6.542;2024-03-17T00:44:10;7.78;;;3.08;;
57107;SDS011;42987;52.916;6.542;2024-03-17T00:46:36;5.72;;;2.88;;
57107;SDS011;42987;52.916;6.542;2024-03-17T00:49:01;8.93;;;3.05;;
57107;SDS011;42987;52.916;6.542;2024-03-17T00:51:27;8.35;;;3.05;;
57107;SDS011;42987;52.916;6.542;2024-03-17T00:53:53;10.18;;;3.42;;
57107;SDS011;42987;52.916;6.542;2024-03-17T00:56:21;7.88;;;3.35;;
57107;SDS011;42987;52.916;6.542;2024-03-17T00:58:47;7.60;;;3.20;;
57107;SDS011;42987;52.916;6.542;2024-03-17T01:01:16;9.52;;;2.97;;
57107;SDS011;42987;52.916;6.542;2024-03-17T01:03:44;8.23;;;3.25;;
57107;SDS011;42987;52.916;6.542;2024-03-17T01:06:10;7.80;;;2.63;;
57107;SDS011;42987;52.916;6.542;2024-03-17T01:08:36;10.00;;;3.17;;
57107;SDS011;42987;52.916;6.542;2024-03-17T01:11:02;7.72;;;3.20;;
57107;SDS011;42987;52.916;6.542;2024-03-17T01:13:28;7.47;;;3.17;;
57107;SDS011;42987;52.916;6.542;2024-03-17T01:15:54;7.35;;;3.13;;
57107;SDS011;42987;52.916;6.542;2024-03-17T01:18:19;7.28;;;2.53;;
57107;SDS011;42987;52.916;6.542;2024-03-17T01:20:45;7.05;;;3.15;;
57107;SDS011;42987;52.916;6.542;2024-03-17T01:23:11;7.60;;;2.60;;
57107;SDS011;42987;52.916;6.542;2024-03-17T01:25:38;7.75;;;2.83;;
57107;SDS011;42987;52.916;6.542;2024-03-17T01:28:04;7.22;;;3.17;;
57107;SDS011;42987;52.916;6.542;2024-03-17T01:30:31;9.05;;;3.40;;
57107;SDS011;42987;52.916;6.542;2024-03-17T01:32:59;7.03;;;3.33;;
57107;SDS011;42987;52.916;6.542;2024-03-17T01:35:26;8.38;;;3.10;;
57107;SDS011;42987;52.916;6.542;2024-03-17T01:37:52;6.30;;;3.30;;
57107;SDS011;42987;52.916;6.542;2024-03-17T01:40:17;8.70;;;3.00;;
57107;SDS011;42987;52.916;6.542;2024-03-17T01:42:43;9.05;;;3.47;;
57107;SDS011;42987;52.916;6.542;2024-03-17T01:47:54;7.05;;;3.13;;
57107;SDS011;42987;52.916;6.542;2024-03-17T01:50:25;8.05;;;3.42;;
57107;SDS011;42987;52.916;6.542;2024-03-17T01:52:54;10.80;;;3.43;;
57107;SDS011;42987;52.916;6.542;2024-03-17T01:55:21;7.25;;;3.83;;
57107;SDS011;42987;52.916;6.542;2024-03-17T01:57:49;12.02;;;4.30;;
57107;SDS011;42987;52.916;6.542;2024-03-17T02:00:17;12.70;;;4.53;;
57107;SDS011;42987;52.916;6.542;2024-03-17T02:02:43;10.48;;;4.53;;
57107;SDS011;42987;52.916;6.542;2024-03-17T02:05:08;13.27;;;4.63;;
57107;SDS011;42987;52.916;6.542;2024-03-17T02:07:35;9.25;;;4.70;;
57107;SDS011;42987;52.916;6.542;2024-03-17T02:10:05;15.02;;;5.07;;
57107;SDS011;42987;52.916;6.542;2024-03-17T02:12:33;9.82;;;4.15;;
57107;SDS011;42987;52.916;6.542;2024-03-17T02:15:00;10.55;;;4.72;;
57107;SDS011;42987;52.916;6.542;2024-03-17T02:17:30;11.32;;;4.60;;
57107;SDS011;42987;52.916;6.542;2024-03-17T02:19:59;11.50;;;4.85;;
57107;SDS011;42987;52.916;6.542;2024-03-17T02:22:25;12.82;;;4.55;;
57107;SDS011;42987;52.916;6.542;2024-03-17T02:24:53;9.63;;;4.90;;
57107;SDS011;42987;52.916;6.542;2024-03-17T02:27:19;13.95;;;5.78;;
57107;SDS011;42987;52.916;6.542;2024-03-17T02:29:45;9.90;;;4.43;;
57107;SDS011;42987;52.916;6.542;2024-03-17T02:32:11;10.82;;;4.72;;
57107;SDS011;42987;52.916;6.542;2024-03-17T02:34:37;9.27;;;4.60;;
57107;SDS011;42987;52.916;6.542;2024-03-17T02:37:06;7.90;;;4.30;;
57107;SDS011;42987;52.916;6.542;2024-03-17T02:39:32;9.02;;;4.20;;
57107;SDS011;42987;52.916;6.542;2024-03-17T02:42:09;8.20;;;4.35;;
57107;SDS011;42987;52.916;6.542;2024-03-17T02:44:36;9.70;;;4.88;;
57107;SDS011;42987;52.916;6.542;2024-03-17T02:47:04;9.95;;;4.97;;
57107;SDS011;42987;52.916;6.542;2024-03-17T02:49:30;10.52;;;4.97;;
57107;SDS011;42987;52.916;6.542;2024-03-17T02:52:04;9.10;;;5.55;;
57107;SDS011;42987;52.916;6.542;2024-03-17T02:54:37;11.50;;;5.32;;
57107;SDS011;42987;52.916;6.542;2024-03-17T02:57:03;12.40;;;5.90;;
57107;SDS011;42987;52.916;6.542;2024-03-17T02:59:31;15.90;;;6.93;;
57107;SDS011;42987;52.916;6.542;2024-03-17T03:01:58;9.48;;;5.97;;
57107;SDS011;42987;52.916;6.542;2024-03-17T03:04:25;11.20;;;6.93;;
57107;SDS011;42987;52.916;6.542;2024-03-17T03:06:52;17.38;;;7.28;;
57107;SDS011;42987;52.916;6.542;2024-03-17T03:09:18;13.18;;;6.90;;
57107;SDS011;42987;52.916;6.542;2024-03-17T03:11:59;11.02;;;6.65;;
57107;SDS011;42987;52.916;6.542;2024-03-17T03:14:27;10.77;;;6.88;;
57107;SDS011;42987;52.916;6.542;2024-03-17T03:16:54;14.07;;;8.00;;
57107;SDS011;42987;52.916;6.542;2024-03-17T03:19:20;10.85;;;7.30;;
57107;SDS011;42987;52.916;6.542;2024-03-17T03:21:45;14.05;;;8.30;;
57107;SDS011;42987;52.916;6.542;2024-03-17T03:24:13;13.40;;;8.25;;
57107;SDS011;42987;52.916;6.542;2024-03-17T03:26:39;12.30;;;8.27;;
57107;SDS011;42987;52.916;6.542;2024-03-17T03:29:05;11.65;;;8.07;;
57107;SDS011;42987;52.916;6.542;2024-03-17T03:31:31;18.38;;;9.23;;
57107;SDS011;42987;52.916;6.542;2024-03-17T03:33:57;17.50;;;9.27;;
57107;SDS011;42987;52.916;6.542;2024-03-17T03:36:26;11.95;;;9.27;;
57107;SDS011;42987;52.916;6.542;2024-03-17T03:38:55;19.63;;;10.10;;
57107;SDS011;42987;52.916;6.542;2024-03-17T03:41:22;14.93;;;9.40;;
57107;SDS011;42987;52.916;6.542;2024-03-17T03:43:48;19.35;;;9.98;;
57107;SDS011;42987;52.916;6.542;2024-03-17T03:46:14;14.88;;;9.95;;
57107;SDS011;42987;52.916;6.542;2024-03-17T03:48:40;16.67;;;9.73;;
57107;SDS011;42987;52.916;6.542;2024-03-17T03:51:06;14.82;;;9.48;;
57107;SDS011;42987;52.916;6.542;2024-03-17T03:53:33;12.15;;;8.98;;
57107;SDS011;42987;52.916;6.542;2024-03-17T03:56:00;14.15;;;8.98;;
57107;SDS011;42987;52.916;6.542;2024-03-17T03:58:31;19.65;;;10.38;;
57107;SDS011;42987;52.916;6.542;2024-03-17T04:00:59;14.82;;;9.43;;
57107;SDS011;42987;52.916;6.542;2024-03-17T04:03:25;15.30;;;9.95;;
57107;SDS011;42987;52.916;6.542;2024-03-17T04:05:51;16.65;;;9.52;;
57107;SDS011;42987;52.916;6.542;2024-03-17T04:08:26;17.27;;;11.10;;
57107;SDS011;42987;52.916;6.542;2024-03-17T04:10:52;14.00;;;9.82;;
57107;SDS011;42987;52.916;6.542;2024-03-17T04:13:17;15.27;;;9.55;;
57107;SDS011;42987;52.916;6.542;2024-03-17T04:15:43;12.98;;;9.27;;
57107;SDS011;42987;52.916;6.542;2024-03-17T04:18:09;15.32;;;10.25;;
57107;SDS011;42987;52.916;6.542;2024-03-17T04:20:36;18.80;;;10.23;;
57107;SDS011;42987;52.916;6.542;2024-03-17T04:23:02;12.35;;;8.98;;
57107;SDS011;42987;52.916;6.542;2024-03-17T04:25:28;15.23;;;10.07;;
57107;SDS011;42987;52.916;6.542;2024-03-17T04:27:54;15.52;;;10.23;;
57107;SDS011;42987;52.916;6.542;2024-03-17T04:30:20;17.52;;;9.85;;
57107;SDS011;42987;52.916;6.542;2024-03-17T04:32:45;17.33;;;9.50;;
57107;SDS011;42987;52.916;6.542;2024-03-17T04:35:11;16.73;;;9.95;;
57107;SDS011;42987;52.916;6.542;2024-03-17T04:37:37;14.98;;;8.68;;
57107;SDS011;42987;52.916;6.542;2024-03-17T04:40:05;15.60;;;9.10;;
57107;SDS011;42987;52.916;6.542;2024-03-17T04:42:34;14.23;;;10.30;;
57107;SDS011;42987;52.916;6.542;2024-03-17T04:45:00;13.25;;;9.23;;
57107;SDS011;42987;52.916;6.542;2024-03-17T04:47:26;13.98;;;10.38;;
57107;SDS011;42987;52.916;6.542;2024-03-17T04:49:52;14.45;;;10.32;;
57107;SDS011;42987;52.916;6.542;2024-03-17T04:52:18;13.75;;;9.75;;
57107;SDS011;42987;52.916;6.542;2024-03-17T04:54:43;13.75;;;9.73;;
57107;SDS011;42987;52.916;6.542;2024-03-17T04:57:09;16.88;;;10.52;;
57107;SDS011;42987;52.916;6.542;2024-03-17T04:59:35;18.42;;;9.70;;
57107;SDS011;42987;52.916;6.542;2024-03-17T05:02:04;13.55;;;9.65;;
57107;SDS011;42987;52.916;6.542;2024-03-17T05:04:30;16.15;;;8.63;;
57107;SDS011;42987;52.916;6.542;2024-03-17T05:06:56;14.82;;;9.05;;
57107;SDS011;42987;52.916;6.542;2024-03-17T05:09:21;15.80;;;8.95;;
57107;SDS011;42987;52.916;6.542;2024-03-17T05:11:48;18.83;;;9.75;;
57107;SDS011;42987;52.916;6.542;2024-03-17T05:14:17;16.95;;;9.13;;
57107;SDS011;42987;52.916;6.542;2024-03-17T05:16:44;13.30;;;8.45;;
57107;SDS011;42987;52.916;6.542;2024-03-17T05:19:10;15.35;;;9.25;;
57107;SDS011;42987;52.916;6.542;2024-03-17T05:21:36;15.48;;;8.93;;
57107;SDS011;42987;52.916;6.542;2024-03-17T05:24:02;19.27;;;9.20;;
57107;SDS011;42987;52.916;6.542;2024-03-17T05:26:28;15.45;;;9.63;;
57107;SDS011;42987;52.916;6.542;2024-03-17T05:28:55;17.73;;;8.93;;
57107;SDS011;42987;52.916;6.542;2024-03-17T05:31:21;15.48;;;9.30;;
57107;SDS011;42987;52.916;6.542;2024-03-17T05:33:47;16.40;;;9.20;;
57107;SDS011;42987;52.916;6.542;2024-03-17T05:36:14;13.48;;;9.40;;
57107;SDS011;42987;52.916;6.542;2024-03-17T05:38:40;14.40;;;9.13;;
57107;SDS011;42987;52.916;6.542;2024-03-17T05:41:06;13.27;;;9.07;;
57107;SDS011;42987;52.916;6.542;2024-03-17T05:43:33;15.82;;;9.25;;
57107;SDS011;42987;52.916;6.542;2024-03-17T05:46:04;15.27;;;9.23;;
57107;SDS011;42987;52.916;6.542;2024-03-17T05:48:32;20.70;;;9.75;;
57107;SDS011;42987;52.916;6.542;2024-03-17T05:51:00;15.52;;;9.27;;
57107;SDS011;42987;52.916;6.542;2024-03-17T05:53:27;16.88;;;9.25;;
57107;SDS011;42987;52.916;6.542;2024-03-17T05:55:53;17.65;;;8.98;;
57107;SDS011;42987;52.916;6.542;2024-03-17T05:58:20;15.98;;;8.52;;
57107;SDS011;42987;52.916;6.542;2024-03-17T06:00:46;16.98;;;8.88;;
57107;SDS011;42987;52.916;6.542;2024-03-17T06:03:12;14.18;;;8.55;;
57107;SDS011;42987;52.916;6.542;2024-03-17T06:05:39;16.08;;;8.07;;
57107;SDS011;42987;52.916;6.542;2024-03-17T06:08:08;14.30;;;8.52;;
57107;SDS011;42987;52.916;6.542;2024-03-17T06:10:35;17.58;;;8.60;;
57107;SDS011;42987;52.916;6.542;2024-03-17T06:13:02;13.68;;;7.40;;
57107;SDS011;42987;52.916;6.542;2024-03-17T06:15:28;14.55;;;7.53;;
57107;SDS011;42987;52.916;6.542;2024-03-17T06:17:54;15.32;;;7.75;;
57107;SDS011;42987;52.916;6.542;2024-03-17T06:20:20;15.48;;;7.53;;
57107;SDS011;42987;52.916;6.542;2024-03-17T06:22:49;17.42;;;7.85;;
57107;SDS011;42987;52.916;6.542;2024-03-17T06:25:15;13.13;;;7.05;;
57107;SDS011;42987;52.916;6.542;2024-03-17T06:27:41;13.35;;;7.30;;
57107;SDS011;42987;52.916;6.542;2024-03-17T06:30:12;17.08;;;7.40;;
57107;SDS011;42987;52.916;6.542;2024-03-17T06:32:41;11.43;;;6.10;;
57107;SDS011;42987;52.916;6.542;2024-03-17T06:35:10;12.55;;;6.68;;
57107;SDS011;42987;52.916;6.542;2024-03-17T06:37:36;10.87;;;5.97;;
57107;SDS011;42987;52.916;6.542;2024-03-17T06:40:03;12.32;;;6.40;;
57107;SDS011;42987;52.916;6.542;2024-03-17T06:42:30;14.82;;;6.03;;
57107;SDS011;42987;52.916;6.542;2024-03-17T06:44:56;11.60;;;6.18;;
57107;SDS011;42987;52.916;6.542;2024-03-17T06:47:23;11.07;;;5.47;;
57107;SDS011;42987;52.916;6.542;2024-03-17T06:49:50;14.77;;;6.35;;
57107;SDS011;42987;52.916;6.542;2024-03-17T06:52:16;8.57;;;5.18;;
57107;SDS011;42987;52.916;6.542;2024-03-17T06:54:42;12.68;;;5.13;;
57107;SDS011;42987;52.916;6.542;2024-03-17T06:57:08;11.18;;;5.30;;
57107;SDS011;42987;52.916;6.542;2024-03-17T06:59:34;14.63;;;5.53;;
57107;SDS011;42987;52.916;6.542;2024-03-17T07:01:59;9.77;;;4.38;;
57107;SDS011;42987;52.916;6.542;2024-03-17T07:04:26;10.90;;;4.95;;
57107;SDS011;42987;52.916;6.542;2024-03-17T07:06:52;9.90;;;4.68;;
57107;SDS011;42987;52.916;6.542;2024-03-17T07:09:18;10.18;;;4.88;;
57107;SDS011;42987;52.916;6.542;2024-03-17T07:11:43;10.60;;;5.07;;
57107;SDS011;42987;52.916;6.542;2024-03-17T07:14:10;9.80;;;4.85;;
57107;SDS011;42987;52.916;6.542;2024-03-17T07:16:36;11.02;;;4.90;;
57107;SDS011;42987;52.916;6.542;2024-03-17T07:19:02;10.07;;;4.75;;
57107;SDS011;42987;52.916;6.542;2024-03-17T07:21:30;11.10;;;4.43;;
57107;SDS011;42987;52.916;6.542;2024-03-17T07:23:59;11.13;;;4.55;;
57107;SDS011;42987;52.916;6.542;2024-03-17T07:26:29;8.88;;;4.63;;
57107;SDS011;42987;52.916;6.542;2024-03-17T07:28:56;8.90;;;4.47;;
57107;SDS011;42987;52.916;6.542;2024-03-17T07:31:21;9.10;;;4.35;;
57107;SDS011;42987;52.916;6.542;2024-03-17T07:33:47;11.77;;;4.82;;
57107;SDS011;42987;52.916;6.542;2024-03-17T07:36:14;10.60;;;4.75;;
57107;SDS011;42987;52.916;6.542;2024-03-17T07:38:40;10.48;;;4.70;;
57107;SDS011;42987;52.916;6.542;2024-03-17T07:41:06;9.95;;;4.18;;
57107;SDS011;42987;52.916;6.542;2024-03-17T07:43:35;14.30;;;5.65;;
57107;SDS011;42987;52.916;6.542;2024-03-17T07:46:03;10.80;;;4.25;;
57107;SDS011;42987;52.916;6.542;2024-03-17T07:48:30;8.98;;;4.70;;
57107;SDS011;42987;52.916;6.542;2024-03-17T07:50:58;10.82;;;4.32;;
57107;SDS011;42987;52.916;6.542;2024-03-17T07:53:44;10.10;;;4.90;;
57107;SDS011;42987;52.916;6.542;2024-03-17T07:56:13;11.80;;;5.32;;
57107;SDS011;42987;52.916;6.542;2024-03-17T07:58:40;10.15;;;5.20;;
57107;SDS011;42987;52.916;6.542;2024-03-17T08:01:11;10.75;;;5.00;;
57107;SDS011;42987;52.916;6.542;2024-03-17T08:06:05;10.65;;;5.03;;
57107;SDS011;42987;52.916;6.542;2024-03-17T08:08:32;10.35;;;5.35;;
57107;SDS011;42987;52.916;6.542;2024-03-17T08:10:58;15.95;;;5.90;;
57107;SDS011;42987;52.916;6.542;2024-03-17T08:13:24;11.48;;;5.97;;
57107;SDS011;42987;52.916;6.542;2024-03-17T08:15:57;9.90;;;5.55;;
57107;SDS011;42987;52.916;6.542;2024-03-17T08:18:24;13.07;;;6.13;;
57107;SDS011;42987;52.916;6.542;2024-03-17T08:20:52;11.13;;;6.47;;
57107;SDS011;42987;52.916;6.542;2024-03-17T08:23:19;12.38;;;6.65;;
57107;SDS011;42987;52.916;6.542;2024-03-17T08:25:55;13.38;;;6.38;;
57107;SDS011;42987;52.916;6.542;2024-03-17T08:28:25;11.70;;;6.43;;
57107;SDS011;42987;52.916;6.542;2024-03-17T08:30:52;15.13;;;6.55;;
57107;SDS011;42987;52.916;6.542;2024-03-17T08:33:18;8.68;;;6.18;;
57107;SDS011;42987;52.916;6.542;2024-03-17T08:38:24;12.50;;;6.45;;
57107;SDS011;42987;52.916;6.542;2024-03-17T08:40:52;12.25;;;6.47;;
57107;SDS011;42987;52.916;6.542;2024-03-17T08:43:19;13.23;;;6.78;;
57107;SDS011;42987;52.916;6.542;2024-03-17T08:45:59;16.23;;;7.70;;
57107;SDS011;42987;52.916;6.542;2024-03-17T08:48:30;11.85;;;7.18;;
57107;SDS011;42987;52.916;6.542;2024-03-17T08:50:58;11.15;;;7.15;;
57107;SDS011;42987;52.916;6.542;2024-03-17T08:53:24;12.73;;;7.40;;
57107;SDS011;42987;52.916;6.542;2024-03-17T08:55:54;14.30;;;8.40;;
57107;SDS011;42987;52.916;6.542;2024-03-17T08:58:21;13.32;;;7.97;;
57107;SDS011;42987;52.916;6.542;2024-03-17T09:00:47;14.60;;;8.57;;
57107;SDS011;42987;52.916;6.542;2024-03-17T09:03:13;13.25;;;8.43;;
57107;SDS011;42987;52.916;6.542;2024-03-17T09:05:41;15.05;;;8.80;;
57107;SDS011;42987;52.916;6.542;2024-03-17T09:08:14;14.35;;;8.75;;
57107;SDS011;42987;52.916;6.542;2024-03-17T09:10:47;19.70;;;9.50;;
57107;SDS011;42987;52.916;6.542;2024-03-17T09:13:17;16.33;;;10.95;;
57107;SDS011;42987;52.916;6.542;2024-03-17T09:18:19;19.40;;;10.18;;
57107;SDS011;42987;52.916;6.542;2024-03-17T09:20:45;14.45;;;11.10;;
57107;SDS011;42987;52.916;6.542;2024-03-17T09:23:11;16.42;;;11.27;;
57107;SDS011;42987;52.916;6.542;2024-03-17T09:25:39;14.13;;;10.57;;
57107;SDS011;42987;52.916;6.542;2024-03-17T09:28:05;16.65;;;10.93;;
57107;SDS011;42987;52.916;6.542;2024-03-17T09:30:30;14.52;;;11.13;;
57107;SDS011;42987;52.916;6.542;2024-03-17T09:32:56;14.82;;;10.88;;
57107;SDS011;42987;52.916;6.542;2024-03-17T09:35:22;17.80;;;12.00;;
57107;SDS011;42987;52.916;6.542;2024-03-17T09:37:48;15.60;;;11.48;;
57107;SDS011;42987;52.916;6.542;2024-03-17T09:40:14;13.75;;;10.82;;
57107;SDS011;42987;52.916;6.542;2024-03-17T09:42:40;15.25;;;11.43;;
57107;SDS011;42987;52.916;6.542;2024-03-17T09:45:09;12.27;;;10.38;;
57107;SDS011;42987;52.916;6.542;2024-03-17T09:47:36;13.55;;;10.15;;
57107;SDS011;42987;52.916;6.542;2024-03-17T09:50:02;13.07;;;10.13;;
57107;SDS011;42987;52.916;6.542;2024-03-17T09:52:28;15.15;;;10.55;;
57107;SDS011;42987;52.916;6.542;2024-03-17T09:54:58;13.50;;;10.57;;
57107;SDS011;42987;52.916;6.542;2024-03-17T09:57:26;13.88;;;9.93;;
57107;SDS011;42987;52.916;6.542;2024-03-17T09:59:54;11.57;;;9.63;;
57107;SDS011;42987;52.916;6.542;2024-03-17T10:02:20;12.35;;;9.73;;
57107;SDS011;42987;52.916;6.542;2024-03-17T10:04:47;13.65;;;9.85;;
57107;SDS011;42987;52.916;6.542;2024-03-17T10:07:13;13.85;;;9.45;;
57107;SDS011;42987;52.916;6.542;2024-03-17T10:09:41;11.07;;;8.75;;
57107;SDS011;42987;52.916;6.542;2024-03-17T10:12:28;12.88;;;9.20;;
57107;SDS011;42987;52.916;6.542;2024-03-17T10:14:58;13.95;;;9.60;;
57107;SDS011;42987;52.916;6.542;2024-03-17T10:25:34;12.85;;;9.50;;
57107;SDS011;42987;52.916;6.542;2024-03-17T10:28:09;12.18;;;9.65;;
57107;SDS011;42987;52.916;6.542;2024-03-17T10:30:36;9.90;;;8.68;;
57107;SDS011;42987;52.916;6.542;2024-03-17T10:33:02;12.18;;;9.20;;
57107;SDS011;42987;52.916;6.542;2024-03-17T10:37:57;12.02;;;9.25;;
57107;SDS011;42987;52.916;6.542;2024-03-17T10:40:25;11.50;;;10.07;;
57107;SDS011;42987;52.916;6.542;2024-03-17T10:42:52;11.23;;;9.13;;
57107;SDS011;42987;52.916;6.542;2024-03-17T10:45:19;13.30;;;10.07;;
57107;SDS011;42987;52.916;6.542;2024-03-17T10:47:50;13.27;;;9.90;;
57107;SDS011;42987;52.916;6.542;2024-03-17T10:50:18;13.10;;;9.27;;
57107;SDS011;42987;52.916;6.542;2024-03-17T10:52:45;14.70;;;10.93;;
57107;SDS011;42987;52.916;6.542;2024-03-17T10:55:25;14.38;;;9.98;;
57107;SDS011;42987;52.916;6.542;2024-03-17T10:57:52;14.18;;;10.18;;
57107;SDS011;42987;52.916;6.542;2024-03-17T11:00:21;11.63;;;9.82;;
57107;SDS011;42987;52.916;6.542;2024-03-17T11:02:53;15.27;;;10.32;;
57107;SDS011;42987;52.916;6.542;2024-03-17T11:05:26;14.95;;;10.20;;
57107;SDS011;42987;52.916;6.542;2024-03-17T11:07:58;12.38;;;9.88;;
57107;SDS011;42987;52.916;6.542;2024-03-17T11:10:28;12.43;;;9.90;;
57107;SDS011;42987;52.916;6.542;2024-03-17T11:12:56;16.45;;;10.75;;
57107;SDS011;42987;52.916;6.542;2024-03-17T11:18:40;14.35;;;9.93;;
57107;SDS011;42987;52.916;6.542;2024-03-17T11:21:03;14.43;;;11.48;;
57107;SDS011;42987;52.916;6.542;2024-03-17T11:23:57;13.88;;;10.18;;
57107;SDS011;42987;52.916;6.542;2024-03-17T11:26:28;13.50;;;9.85;;
57107;SDS011;42987;52.916;6.542;2024-03-17T11:28:58;11.68;;;9.85;;
57107;SDS011;42987;52.916;6.542;2024-03-17T11:31:36;12.07;;;10.02;;
57107;SDS011;42987;52.916;6.542;2024-03-17T11:34:06;13.50;;;10.52;;
57107;SDS011;42987;52.916;6.542;2024-03-17T11:36:51;12.15;;;9.27;;
57107;SDS011;42987;52.916;6.542;2024-03-17T11:39:19;12.88;;;10.13;;
57107;SDS011;42987;52.916;6.542;2024-03-17T11:41:54;12.70;;;11.07;;
57107;SDS011;42987;52.916;6.542;2024-03-17T11:46:50;11.18;;;9.93;;
57107;SDS011;42987;52.916;6.542;2024-03-17T11:49:19;11.73;;;9.52;;
57107;SDS011;42987;52.916;6.542;2024-03-17T11:51:50;12.85;;;10.80;;
57107;SDS011;42987;52.916;6.542;2024-03-17T11:54:18;12.35;;;10.50;;
57107;SDS011;42987;52.916;6.542;2024-03-17T11:56:47;11.80;;;10.40;;
57107;SDS011;42987;52.916;6.542;2024-03-17T11:59:14;12.60;;;10.18;;
57107;SDS011;42987;52.916;6.542;2024-03-17T12:01:43;12.48;;;10.32;;
57107;SDS011;42987;52.916;6.542;2024-03-17T12:04:16;11.48;;;10.27;;
57107;SDS011;42987;52.916;6.542;2024-03-17T12:06:44;11.10;;;9.88;;
57107;SDS011;42987;52.916;6.542;2024-03-17T12:09:16;14.23;;;10.10;;
57107;SDS011;42987;52.916;6.542;2024-03-17T12:14:41;10.90;;;9.80;;
57107;SDS011;42987;52.916;6.542;2024-03-17T12:17:07;13.00;;;10.00;;
57107;SDS011;42987;52.916;6.542;2024-03-17T12:19:37;12.15;;;9.50;;
57107;SDS011;42987;52.916;6.542;2024-03-17T12:22:03;10.63;;;9.00;;
57107;SDS011;42987;52.916;6.542;2024-03-17T12:24:31;9.13;;;8.20;;
57107;SDS011;42987;52.916;6.542;2024-03-17T12:26:59;12.30;;;9.45;;
57107;SDS011;42987;52.916;6.542;2024-03-17T12:32:01;9.30;;;8.20;;
57107;SDS011;42987;52.916;6.542;2024-03-17T12:34:31;9.52;;;8.20;;
57107;SDS011;42987;52.916;6.542;2024-03-17T12:36:58;8.70;;;7.82;;
57107;SDS011;42987;52.916;6.542;2024-03-17T12:39:31;9.63;;;7.47;;
57107;SDS011;42987;52.916;6.542;2024-03-17T12:42:04;9.48;;;8.45;;
57107;SDS011;42987;52.916;6.542;2024-03-17T12:44:31;9.52;;;8.43;;
57107;SDS011;42987;52.916;6.542;2024-03-17T12:47:02;9.90;;;8.27;;
57107;SDS011;42987;52.916;6.542;2024-03-17T12:49:29;9.02;;;8.13;;
57107;SDS011;42987;52.916;6.542;2024-03-17T12:51:56;9.48;;;8.60;;
57107;SDS011;42987;52.916;6.542;2024-03-17T12:54:25;10.52;;;9.15;;
57107;SDS011;42987;52.916;6.542;2024-03-17T12:57:03;9.80;;;8.80;;
57107;SDS011;42987;52.916;6.542;2024-03-17T12:59:48;9.88;;;8.88;;
57107;SDS011;42987;52.916;6.542;2024-03-17T13:02:32;9.95;;;8.95;;
57107;SDS011;42987;52.916;6.542;2024-03-17T13:05:07;10.82;;;8.10;;
57107;SDS011;42987;52.916;6.542;2024-03-17T13:07:36;9.38;;;8.43;;
57107;SDS011;42987;52.916;6.542;2024-03-17T13:10:02;12.13;;;9.40;;
57107;SDS011;42987;52.916;6.542;2024-03-17T13:12:29;10.30;;;8.88;;
57107;SDS011;42987;52.916;6.542;2024-03-17T13:14:55;9.45;;;8.55;;
57107;SDS011;42987;52.916;6.542;2024-03-17T13:17:20;8.70;;;7.90;;
57107;SDS011;42987;52.916;6.542;2024-03-17T13:19:47;11.63;;;9.15;;
57107;SDS011;42987;52.916;6.542;2024-03-17T13:22:13;10.00;;;9.05;;
57107;SDS011;42987;52.916;6.542;2024-03-17T13:24:39;12.00;;;9.20;;
57107;SDS011;42987;52.916;6.542;2024-03-17T13:27:05;10.65;;;9.60;;
57107;SDS011;42987;52.916;6.542;2024-03-17T13:29:33;10.48;;;9.38;;
57107;SDS011;42987;52.916;6.542;2024-03-17T13:32:05;9.57;;;8.55;;
57107;SDS011;42987;52.916;6.542;2024-03-17T13:36:58;10.27;;;9.27;;
57107;SDS011;42987;52.916;6.542;2024-03-17T13:39:29;9.38;;;8.48;;
57107;SDS011;42987;52.916;6.542;2024-03-17T13:41:59;10.23;;;9.15;;
57107;SDS011;42987;52.916;6.542;2024-03-17T13:44:32;10.32;;;9.23;;
57107;SDS011;42987;52.916;6.542;2024-03-17T13:46:58;9.90;;;8.90;;
57107;SDS011;42987;52.916;6.542;2024-03-17T13:49:26;10.90;;;9.55;;
57107;SDS011;42987;52.916;6.542;2024-03-17T13:51:53;10.05;;;8.75;;
57107;SDS011;42987;52.916;6.542;2024-03-17T13:54:19;10.90;;;9.30;;
57107;SDS011;42987;52.916;6.542;2024-03-17T13:56:48;10.35;;;9.15;;
57107;SDS011;42987;52.916;6.542;2024-03-17T13:59:14;10.40;;;9.10;;
57107;SDS011;42987;52.916;6.542;2024-03-17T14:01:42;10.40;;;9.32;;
57107;SDS011;42987;52.916;6.542;2024-03-17T14:04:15;10.05;;;8.63;;
57107;SDS011;42987;52.916;6.542;2024-03-17T14:06:45;9.32;;;8.25;;
57107;SDS011;42987;52.916;6.542;2024-03-17T14:09:14;10.90;;;9.80;;
57107;SDS011;42987;52.916;6.542;2024-03-17T14:11:43;9.85;;;8.85;;
57107;SDS011;42987;52.916;6.542;2024-03-17T14:14:09;9.98;;;8.75;;
57107;SDS011;42987;52.916;6.542;2024-03-17T14:16:36;9.77;;;8.77;;
57107;SDS011;42987;52.916;6.542;2024-03-17T14:19:01;10.45;;;8.88;;
57107;SDS011;42987;52.916;6.542;2024-03-17T14:21:27;10.52;;;9.43;;
57107;SDS011;42987;52.916;6.542;2024-03-17T14:23:54;10.60;;;9.50;;
57107;SDS011;42987;52.916;6.542;2024-03-17T14:26:20;11.10;;;9.88;;
57107;SDS011;42987;52.916;6.542;2024-03-17T14:28:50;10.77;;;9.30;;
57107;SDS011;42987;52.916;6.542;2024-03-17T14:31:17;10.88;;;9.77;;
57107;SDS011;42987;52.916;6.542;2024-03-17T14:33:43;10.77;;;9.68;;
57107;SDS011;42987;52.916;6.542;2024-03-17T14:36:09;11.07;;;9.80;;
57107;SDS011;42987;52.916;6.542;2024-03-17T14:38:35;10.88;;;9.18;;
57107;SDS011;42987;52.916;6.542;2024-03-17T14:41:00;11.48;;;10.30;;
57107;SDS011;42987;52.916;6.542;2024-03-17T14:43:29;11.43;;;9.63;;
57107;SDS011;42987;52.916;6.542;2024-03-17T14:45:55;11.48;;;10.00;;
57107;SDS011;42987;52.916;6.542;2024-03-17T14:48:22;10.88;;;9.77;;
57107;SDS011;42987;52.916;6.542;2024-03-17T14:50:48;10.63;;;9.60;;
57107;SDS011;42987;52.916;6.542;2024-03-17T14:53:14;11.80;;;10.35;;
57107;SDS011;42987;52.916;6.542;2024-03-17T14:55:40;10.70;;;9.60;;
57107;SDS011;42987;52.916;6.542;2024-03-17T14:58:08;11.25;;;9.68;;
57107;SDS011;42987;52.916;6.542;2024-03-17T15:00:37;10.35;;;9.30;;
57107;SDS011;42987;52.916;6.542;2024-03-17T15:03:03;10.40;;;8.95;;
57107;SDS011;42987;52.916;6.542;2024-03-17T15:05:32;11.00;;;9.18;;
57107;SDS011;42987;52.916;6.542;2024-03-17T15:07:58;10.23;;;9.23;;
57107;SDS011;42987;52.916;6.542;2024-03-17T15:10:24;12.52;;;9.88;;
57107;SDS011;42987;52.916;6.542;2024-03-17T15:12:50;11.68;;;10.07;;